Time;durP1;ratioP1;P1;durP2;ratioP2;P2;SDS_P1;SDS_P2;PMS_P1;PMS_P2;Temp;Humidity;BMP_temperature;BMP_pressure;BME280_temperature;BME280_humidity;BME280_pressure;Samples;Min_cycle;Max_cycle;Signal;HPM_P1;HPM_P2
2023/10/31 00:02:21;;;;;;;441.57;183.37;;;10.20;99.90;;;;;;5008461;28;20281;-84
2023/10/31 00:05:38;;;;;;;441.13;184.63;;;10.20;99.90;;;;;;4989813;28;20294;-83
2023/10/31 00:08:56;;;;;;;438.23;183.75;;;10.20;99.90;;;;;;4990082;28;20282;-87
2023/10/31 00:12:39;;;;;;;;;;;;;;;;;;;;;
2023/10/31 00:16:04;;;;;;;439.80;183.00;;;10.20;99.90;;;;;;5008486;28;20054;-85
2023/10/31 00:19:26;;;;;;;440.57;183.50;;;10.30;99.90;;;;;;5030058;28;20371;-84
2023/10/31 00:22:46;;;;;;;438.27;184.20;;;10.30;99.90;;;;;;5017767;28;20287;-84
2023/10/31 00:26:14;;;;;;;;;;;;;;;;;;;;;
2023/10/31 00:29:47;;;;;;;;;;;;;;;;;;;;;
2023/10/31 00:42:15;;;;;;;435.10;184.17;;;10.30;99.90;;;;;;5092740;28;20297;-83
2023/10/31 00:45:34;;;;;;;436.13;183.17;;;10.30;99.90;;;;;;5048951;28;20358;-85
2023/10/31 00:49:09;;;;;;;433.10;184.98;;;10.30;99.90;;;;;;4970983;28;20302;-83
2023/10/31 00:52:31;;;;;;;434.63;184.83;;;10.30;99.90;;;;;;4966643;28;20470;-87
2023/10/31 00:55:49;;;;;;;432.30;185.23;;;10.30;99.90;;;;;;4991998;28;20298;-84
2023/10/31 00:59:19;;;;;;;;;;;;;;;;;;;;;
2023/10/31 01:03:04;;;;;;;;;;;;;;;;;;;;;
2023/10/31 01:06:41;;;;;;;;;;;;;;;;;;;;;
2023/10/31 01:10:07;;;;;;;429.03;182.57;;;10.30;99.90;;;;;;4974717;28;20429;-83
2023/10/31 01:13:30;;;;;;;429.47;184.93;;;10.30;99.90;;;;;;4977454;28;20731;-84
2023/10/31 01:16:50;;;;;;;430.52;185.40;;;10.40;99.90;;;;;;4935353;29;20757;-85
2023/10/31 01:20:24;;;;;;;;;;;;;;;;;;;;;
2023/10/31 01:27:19;;;;;;;428.83;183.17;;;10.40;99.90;;;;;;5000098;28;20080;-87
2023/10/31 01:30:29;;;;;;;427.83;181.87;;;10.40;99.90;;;;;;5011280;28;20289;-85
2023/10/31 01:33:49;;;;;;;;;;;;;;;;;;;;;
2023/10/31 01:37:09;;;;;;;401.23;180.73;;;10.40;99.90;;;;;;5011733;28;20317;-84
2023/10/31 01:40:31;;;;;;;394.23;181.45;;;10.40;99.90;;;;;;4995122;28;20281;-82
2023/10/31 01:43:44;;;;;;;406.70;180.60;;;10.40;99.90;;;;;;5010274;28;20141;-82
2023/10/31 01:58:09;;;;;;;409.63;180.13;;;10.20;99.90;;;;;;5093657;28;20297;-83
2023/10/31 02:00:55;;;;;;;395.17;179.63;;;10.20;99.90;;;;;;5028272;28;20284;-82
2023/10/31 02:04:14;;;;;;;;;;;;;;;;;;;;;
2023/10/31 02:07:33;;;;;;;399.97;182.03;;;10.20;99.90;;;;;;5016931;28;20078;-82
2023/10/31 02:11:11;;;;;;;;;;;;;;;;;;;;;
2023/10/31 02:14:24;;;;;;;398.47;181.77;;;10.10;99.90;;;;;;5029540;28;20343;-84
2023/10/31 02:20:57;;;;;;;;;;;;;;;;;;;;;
2023/10/31 02:24:39;;;;;;;393.93;180.63;;;10.10;99.90;;;;;;4984046;28;20286;-86
2023/10/31 02:27:59;;;;;;;377.27;179.07;;;10.10;99.90;;;;;;4971988;28;20305;-84
2023/10/31 02:31:30;;;;;;;;;;;;;;;;;;;;;
2023/10/31 02:34:26;;;;;;;375.63;178.57;;;10.10;99.90;;;;;;4876996;29;20873;-83
2023/10/31 02:37:29;;;;;;;372.75;177.65;;;10.00;99.90;;;;;;4845706;29;20416;-83
2023/10/31 02:40:31;;;;;;;373.83;178.30;;;10.00;99.90;;;;;;4864868;29;20087;-84
2023/10/31 02:43:13;;;;;;;367.93;176.47;;;10.00;99.90;;;;;;4872585;29;20325;-81
2023/10/31 02:46:33;;;;;;;365.80;174.00;;;10.00;99.90;;;;;;4876134;29;20290;-84
2023/10/31 02:49:52;;;;;;;;;;;;;;;;;;;;;
2023/10/31 02:53:03;;;;;;;390.30;180.03;;;10.10;99.90;;;;;;4894041;29;20750;-83
2023/10/31 02:55:42;;;;;;;389.17;180.03;;;10.10;99.90;;;;;;4918897;29;20351;-85
2023/10/31 03:03:02;;;;;;;;;;;;;;;;;;;;;
2023/10/31 03:06:29;;;;;;;;;;;;;;;;;;;;;
2023/10/31 03:09:54;;;;;;;;;;;;;;;;;;;;;
2023/10/31 03:13:55;;;;;;;;;;;;;;;;;;;;;
2023/10/31 03:17:38;;;;;;;393.57;178.97;;;10.00;99.90;;;;;;4920630;29;20308;-83
2023/10/31 03:28:37;;;;;;;387.07;178.43;;;10.00;99.90;;;;;;4875338;29;20419;-83
2023/10/31 03:31:50;;;;;;;396.43;179.70;;;10.00;99.90;;;;;;4810728;29;20298;-83
2023/10/31 03:34:28;;;;;;;396.67;179.83;;;10.00;99.90;;;;;;4817697;29;20288;-83
2023/10/31 03:37:39;;;;;;;413.50;182.13;;;10.10;99.90;;;;;;4820792;29;20847;-82
2023/10/31 03:41:13;;;;;;;422.53;183.73;;;10.10;99.90;;;;;;4819613;29;20288;-82
2023/10/31 03:44:40;;;;;;;;;;;;;;;;;;;;;
2023/10/31 03:48:49;;;;;;;427.55;183.57;;;10.00;99.90;;;;;;5154370;27;20437;-80
2023/10/31 03:52:16;;;;;;;;;;;;;;;;;;;;;
2023/10/31 03:55:34;;;;;;;461.20;183.27;;;10.00;99.90;;;;;;5084578;28;20366;-81
2023/10/31 03:58:42;;;;;;;465.47;184.70;;;10.00;99.90;;;;;;5084342;28;20840;-80
2023/10/31 04:01:59;;;;;;;466.23;185.20;;;10.00;99.90;;;;;;5087136;28;20336;-81
2023/10/31 04:05:22;;;;;;;465.63;184.10;;;10.00;99.90;;;;;;5086145;28;20370;-82
2023/10/31 04:12:04;;;;;;;468.77;185.37;;;10.00;99.90;;;;;;5087481;28;20270;-83
2023/10/31 04:15:42;;;;;;;;;;;;;;;;;;;;;
2023/10/31 04:19:01;;;;;;;;;;;;;;;;;;;;;
2023/10/31 04:22:37;;;;;;;;;;;;;;;;;;;;;
2023/10/31 04:26:15;;;;;;;471.17;182.90;;;10.40;99.90;;;;;;5008724;28;20172;-82
2023/10/31 04:29:23;;;;;;;465.30;184.50;;;10.10;99.90;;;;;;5023739;28;20284;-82
2023/10/31 04:43:42;;;;;;;;;;;;;;;;;;;;;
2023/10/31 04:47:03;;;;;;;459.27;184.60;;;10.10;99.90;;;;;;4986975;28;20349;-83
2023/10/31 04:50:42;;;;;;;;;;;;;;;;;;;;;
2023/10/31 04:54:17;;;;;;;457.47;184.73;;;10.10;99.90;;;;;;4996729;28;20420;-86
2023/10/31 04:57:37;;;;;;;454.40;183.67;;;10.10;99.90;;;;;;5002522;28;20281;-83
2023/10/31 05:30:25;;;;;;;438.47;183.90;;;10.00;99.90;;;;;;5060978;28;20298;-84
2023/10/31 05:33:03;;;;;;;440.17;185.07;;;10.30;99.90;;;;;;5091912;28;20409;-83
2023/10/31 05:36:16;;;;;;;438.93;183.53;;;10.10;99.90;;;;;;5094487;28;20278;-83
2023/10/31 05:39:46;;;;;;;;;;;;;;;;;;;;;
2023/10/31 05:43:03;;;;;;;439.43;184.20;;;10.10;99.90;;;;;;5097158;28;20290;-84
2023/10/31 05:46:59;;;;;;;441.87;182.60;;;10.10;99.90;;;;;;5115262;27;20297;-83
2023/10/31 05:54:47;;;;;;;439.57;184.03;;;10.10;99.90;;;;;;5072707;28;20273;-84
2023/10/31 05:58:23;;;;;;;440.93;184.87;;;10.10;99.90;;;;;;4971042;28;20354;-84
2023/10/31 06:01:57;;;;;;;438.50;182.73;;;10.20;99.90;;;;;;4972689;28;20287;-83
2023/10/31 06:05:37;;;;;;;440.13;184.17;;;10.20;99.90;;;;;;4971384;28;20286;-83
2023/10/31 06:09:10;;;;;;;;;;;;;;;;;;;;;
2023/10/31 06:12:33;;;;;;;440.00;185.57;;;10.20;99.90;;;;;;4878397;29;20650;-84
2023/10/31 06:15:53;;;;;;;437.97;184.40;;;10.10;99.90;;;;;;4878089;29;20298;-82
2023/10/31 06:19:00;;;;;;;438.53;185.70;;;10.10;99.90;;;;;;4877827;29;20302;-84
2023/10/31 06:21:37;;;;;;;439.83;184.83;;;10.10;99.90;;;;;;4871249;29;20381;-83
2023/10/31 06:24:45;;;;;;;439.07;185.90;;;10.10;99.90;;;;;;4895782;29;20817;-83
2023/10/31 06:28:26;;;;;;;438.77;185.63;;;10.10;99.90;;;;;;4878557;29;20312;-83
2023/10/31 06:32:05;;;;;;;441.13;185.27;;;10.10;99.90;;;;;;4880670;29;20624;-84
2023/10/31 06:35:35;;;;;;;440.20;184.20;;;10.40;99.90;;;;;;4916708;29;20368;-83
2023/10/31 06:38:45;;;;;;;440.23;183.10;;;10.10;99.90;;;;;;4878158;29;20315;-82
2023/10/31 06:42:14;;;;;;;;;;;;;;;;;;;;;
2023/10/31 06:45:51;;;;;;;442.13;183.27;;;10.10;99.90;;;;;;4950529;29;20290;-83
2023/10/31 06:49:02;;;;;;;439.93;183.70;;;10.10;99.90;;;;;;4876439;29;20325;-84
2023/10/31 06:52:22;;;;;;;423.80;183.97;;;10.10;99.90;;;;;;4877099;29;20372;-85
2023/10/31 07:02:52;;;;;;;;;;;;;;;;;;;;;
2023/10/31 07:05:54;;;;;;;442.87;183.43;;;10.10;99.90;;;;;;4914043;29;20288;-87
2023/10/31 07:09:14;;;;;;;;;;;;;;;;;;;;;
2023/10/31 07:12:19;;;;;;;442.17;185.33;;;10.20;99.90;;;;;;4950809;29;20695;-86
2023/10/31 07:15:38;;;;;;;431.17;182.97;;;10.20;99.90;;;;;;5010582;28;20685;-87
2023/10/31 07:19:12;;;;;;;;;;;;;;;;;;;;;
2023/10/31 07:26:06;;;;;;;438.53;184.47;;;10.20;99.90;;;;;;5023689;28;20303;-89
2023/10/31 07:29:13;;;;;;;438.40;185.07;;;10.20;99.90;;;;;;4964543;28;20116;-84
2023/10/31 07:32:33;;;;;;;438.47;185.23;;;10.40;99.90;;;;;;4966167;28;20728;-90
2023/10/31 07:35:48;;;;;;;433.05;185.23;;;10.20;99.90;;;;;;4952675;28;20287;-88
2023/10/31 07:39:14;;;;;;;;;;;;;;;;;;;;;
2023/10/31 07:42:04;;;;;;;437.33;184.97;;;10.20;99.90;;;;;;4939209;28;20051;-88
2023/10/31 08:06:51;;;;;;;435.77;185.15;;;10.40;99.90;;;;;;5108647;28;20078;-86
2023/10/31 08:10:13;;;;;;;;;;;;;;;;;;;;;
2023/10/31 08:13:23;;;;;;;439.13;184.03;;;10.60;99.90;;;;;;5112474;28;20296;-85
2023/10/31 08:16:33;;;;;;;;;;;;;;;;;;;;;
2023/10/31 08:19:28;;;;;;;439.33;184.40;;;10.60;99.90;;;;;;5109475;28;20273;-89
2023/10/31 08:22:43;;;;;;;;;;;;;;;;;;;;;
2023/10/31 08:36:58;;;;;;;443.77;186.83;;;11.00;99.90;;;;;;5116646;28;20777;-86
2023/10/31 08:40:08;;;;;;;446.17;183.77;;;11.10;99.90;;;;;;5116539;28;20280;-89
2023/10/31 08:43:22;;;;;;;436.23;185.33;;;11.20;99.90;;;;;;5116798;28;20686;-88
2023/10/31 08:46:36;;;;;;;;;;;;;;;;;;;;;
2023/10/31 08:49:38;;;;;;;545.40;192.80;;;11.50;99.90;;;;;;5091726;28;20370;-85
2023/10/31 08:52:54;;;;;;;537.23;190.93;;;11.70;99.90;;;;;;5095081;28;20285;-84
2023/10/31 08:59:53;;;;;;;535.37;191.53;;;11.70;99.90;;;;;;5096317;28;20331;-84
2023/10/31 09:02:54;;;;;;;537.97;191.60;;;11.70;99.90;;;;;;5093347;28;20291;-84
2023/10/31 09:06:03;;;;;;;538.87;192.13;;;11.60;99.90;;;;;;5114213;28;20325;-82
2023/10/31 09:09:08;;;;;;;535.70;191.73;;;11.60;99.90;;;;;;5093936;28;20290;-82
2023/10/31 09:12:28;;;;;;;529.70;191.03;;;11.60;99.90;;;;;;5097391;28;20289;-83
2023/10/31 09:15:49;;;;;;;;;;;;;;;;;;;;;
2023/10/31 09:18:43;;;;;;;526.00;189.30;;;11.50;99.90;;;;;;5111713;28;20310;-84
2023/10/31 09:22:04;;;;;;;526.83;191.20;;;11.50;99.90;;;;;;5115726;28;20270;-84
2023/10/31 09:24:43;;;;;;;524.03;189.50;;;11.40;99.90;;;;;;5097916;28;20362;-83
2023/10/31 09:28:08;;;;;;;520.03;189.63;;;11.40;99.90;;;;;;5033231;28;20318;-85
2023/10/31 09:31:22;;;;;;;521.03;189.60;;;11.40;99.90;;;;;;5046497;28;20122;-83
2023/10/31 09:34:33;;;;;;;518.73;190.20;;;11.30;99.90;;;;;;5053303;28;20307;-84
2023/10/31 09:37:52;;;;;;;;;;;;;;;;;;;;;
2023/10/31 09:41:05;;;;;;;511.33;189.00;;;11.20;99.90;;;;;;5060528;28;20291;-82
2023/10/31 09:44:27;;;;;;;514.13;189.53;;;11.20;99.90;;;;;;5065604;28;20707;-83
2023/10/31 09:47:05;;;;;;;520.38;189.65;;;11.30;99.90;;;;;;5088293;28;20295;-85
2023/10/31 09:49:32;;;;;;;523.03;190.60;;;11.30;99.90;;;;;;5071181;28;20037;-86
2023/10/31 09:52:00;;;;;;;525.97;191.67;;;11.40;99.90;;;;;;5052393;28;20291;-84
2023/10/31 09:54:26;;;;;;;524.93;199.33;;;11.40;99.90;;;;;;5071488;28;20328;-90
2023/10/31 09:56:54;;;;;;;516.60;191.53;;;11.40;99.90;;;;;;5055413;28;20352;-82
2023/10/31 09:59:27;;;;;;;517.37;189.67;;;11.40;99.90;;;;;;5070083;28;20823;-87
2023/10/31 10:02:07;;;;;;;515.50;189.80;;;11.50;99.90;;;;;;5051636;28;20071;-84
2023/10/31 10:04:41;;;;;;;514.70;190.47;;;11.50;99.90;;;;;;5095987;28;20301;-84
2023/10/31 10:07:20;;;;;;;516.50;189.97;;;11.70;99.90;;;;;;5114696;28;20348;-81
2023/10/31 10:10:05;;;;;;;515.20;190.30;;;11.70;99.90;;;;;;5115049;28;20265;-84
2023/10/31 10:12:44;;;;;;;518.35;189.93;;;11.90;99.90;;;;;;5115115;28;20273;-84
2023/10/31 10:15:20;;;;;;;519.17;191.23;;;12.00;99.90;;;;;;5111526;27;20065;-81
2023/10/31 10:18:16;;;;;;;518.97;190.77;;;11.90;99.90;;;;;;5135326;27;20355;-83
2023/10/31 10:21:04;;;;;;;519.73;191.37;;;11.90;99.90;;;;;;5102010;28;20299;-83
2023/10/31 10:23:47;;;;;;;519.10;190.67;;;11.90;99.90;;;;;;5113495;28;20278;-83
2023/10/31 10:30:10;;;;;;;517.30;190.43;;;11.80;99.90;;;;;;5114432;28;20276;-83
2023/10/31 10:32:52;;;;;;;518.40;191.60;;;11.90;99.90;;;;;;5114367;28;20278;-84
2023/10/31 10:35:50;;;;;;;515.83;190.40;;;11.90;99.90;;;;;;5096671;28;20346;-83
2023/10/31 10:38:41;;;;;;;513.57;191.17;;;12.00;99.90;;;;;;5114667;28;20266;-82
2023/10/31 10:41:22;;;;;;;518.37;192.10;;;12.00;99.90;;;;;;5113491;28;20423;-82
2023/10/31 10:44:23;;;;;;;524.77;192.87;;;11.90;99.90;;;;;;5096324;28;20849;-82
2023/10/31 10:47:00;;;;;;;520.00;192.27;;;12.00;99.90;;;;;;5122915;27;20309;-83
2023/10/31 10:49:40;;;;;;;527.60;192.83;;;12.00;99.90;;;;;;5114218;28;20274;-82
2023/10/31 10:52:24;;;;;;;531.00;193.67;;;12.20;99.90;;;;;;5114479;28;20273;-87
2023/10/31 10:55:29;;;;;;;532.20;192.93;;;12.10;99.90;;;;;;5095199;28;20282;-86
2023/10/31 10:58:28;;;;;;;532.03;194.30;;;12.10;99.90;;;;;;5096464;28;20406;-81
2023/10/31 11:01:00;;;;;;;538.90;195.60;;;12.10;99.90;;;;;;5114086;28;20368;-82
2023/10/31 11:03:36;;;;;;;541.67;195.07;;;12.10;99.90;;;;;;5114267;28;20392;-84
2023/10/31 11:06:15;;;;;;;548.23;194.77;;;12.20;99.90;;;;;;5113029;28;20302;-83
2023/10/31 11:08:49;;;;;;;538.63;192.97;;;12.30;99.90;;;;;;5112987;28;20468;-82
2023/10/31 11:11:30;;;;;;;542.27;194.07;;;12.30;99.90;;;;;;5113758;28;20284;-85
2023/10/31 11:14:07;;;;;;;544.53;194.90;;;12.40;99.90;;;;;;5113756;28;20780;-85
2023/10/31 11:16:54;;;;;;;542.67;194.27;;;12.30;99.90;;;;;;5129642;27;20285;-84
2023/10/31 11:19:31;;;;;;;535.83;194.10;;;12.30;99.90;;;;;;5134471;27;20269;-84
2023/10/31 11:22:06;;;;;;;538.77;195.37;;;12.30;99.90;;;;;;5124919;27;20281;-83
2023/10/31 11:57:40;;;;;;;550.33;195.53;;;12.40;99.90;;;;;;5110641;28;20304;-86
2023/10/31 12:00:33;;;;;;;551.55;197.75;;;12.40;99.90;;;;;;5093880;28;20774;-85
2023/10/31 12:03:40;;;;;;;550.97;195.90;;;12.30;99.90;;;;;;5058720;28;20553;-85
2023/10/31 12:06:37;;;;;;;551.73;196.40;;;12.30;99.90;;;;;;5084410;28;20680;-88
2023/10/31 12:09:39;;;;;;;552.60;197.57;;;12.20;99.90;;;;;;5115333;28;20281;-82
2023/10/31 12:13:01;;;;;;;;;;;;;;;;;;;;;
2023/10/31 12:19:13;;;;;;;542.00;196.77;;;12.20;99.90;;;;;;5115765;28;20122;-88
2023/10/31 12:22:03;;;;;;;538.70;195.40;;;12.10;99.90;;;;;;5115993;28;20338;-86
2023/10/31 12:25:12;;;;;;;535.23;194.87;;;12.20;99.90;;;;;;5098601;28;20338;-85
2023/10/31 12:28:20;;;;;;;532.80;193.60;;;12.10;99.90;;;;;;5113516;28;20075;-85
2023/10/31 12:31:15;;;;;;;539.47;195.00;;;12.10;99.90;;;;;;5099069;28;20297;-84
2023/10/31 12:34:38;;;;;;;536.33;194.93;;;12.00;99.90;;;;;;5082957;28;20777;-83
2023/10/31 12:41:24;;;;;;;;;;;;;;;;;;;;;
2023/10/31 12:44:37;;;;;;;529.47;193.90;;;11.80;99.90;;;;;;5116382;28;20645;-83
2023/10/31 12:47:35;;;;;;;527.70;194.23;;;11.80;99.90;;;;;;5099261;28;21824;-84
2023/10/31 12:50:35;;;;;;;523.13;193.20;;;12.30;99.90;;;;;;5097703;28;20281;-83
2023/10/31 12:53:51;;;;;;;525.50;194.17;;;11.80;99.90;;;;;;5098136;28;20365;-83
2023/10/31 12:57:04;;;;;;;519.13;192.93;;;11.80;99.90;;;;;;5116258;28;20288;-84
2023/10/31 13:03:53;;;;;;;522.97;192.63;;;11.80;99.90;;;;;;5096333;28;20265;-82
2023/10/31 13:07:20;;;;;;;522.35;193.13;;;11.80;99.90;;;;;;5115965;28;20046;-84
2023/10/31 13:10:27;;;;;;;517.33;191.47;;;11.70;99.90;;;;;;5100053;28;20043;-88
2023/10/31 13:13:37;;;;;;;521.17;192.60;;;11.60;99.90;;;;;;5112191;28;20401;-83
2023/10/31 13:17:07;;;;;;;519.22;193.23;;;11.60;99.90;;;;;;5116103;28;20270;-87
2023/10/31 13:19:57;;;;;;;528.63;195.07;;;11.60;99.90;;;;;;5114153;28;20050;-82
2023/10/31 13:34:11;;;;;;;;;;;;;;;;;;;;;
2023/10/31 13:37:22;;;;;;;519.43;192.27;;;11.50;99.90;;;;;;5097103;28;20278;-84
2023/10/31 13:40:35;;;;;;;518.27;191.93;;;11.60;99.90;;;;;;5093988;28;20320;-84
2023/10/31 13:43:47;;;;;;;518.07;192.37;;;11.50;99.90;;;;;;5114789;28;20301;-82
2023/10/31 13:46:56;;;;;;;514.63;191.60;;;11.40;99.90;;;;;;5115256;28;20316;-82
2023/10/31 13:49:54;;;;;;;520.30;190.67;;;11.40;99.90;;;;;;5113823;28;20281;-83
2023/10/31 13:52:32;;;;;;;521.50;192.87;;;11.20;99.90;;;;;;5096407;28;20342;-84
2023/10/31 13:55:00;;;;;;;519.70;192.67;;;11.20;99.90;;;;;;5093792;28;20788;-83
2023/10/31 13:57:33;;;;;;;519.23;192.67;;;11.20;99.90;;;;;;5114758;28;20286;-85
2023/10/31 14:00:07;;;;;;;522.77;193.03;;;11.10;99.90;;;;;;5115304;28;20286;-82
2023/10/31 14:02:36;;;;;;;525.30;191.18;;;11.10;99.90;;;;;;5095676;28;20326;-83
2023/10/31 14:05:16;;;;;;;520.50;192.53;;;11.00;99.90;;;;;;5114755;28;20404;-83
2023/10/31 14:08:09;;;;;;;524.43;192.80;;;11.00;99.90;;;;;;5113694;28;20260;-83
2023/10/31 14:11:48;;;;;;;;;;;;;;;;;;;;;
2023/10/31 14:25:55;;;;;;;523.43;192.03;;;11.00;99.90;;;;;;5115101;28;20280;-83
2023/10/31 14:28:50;;;;;;;524.90;192.97;;;10.90;99.90;;;;;;5113710;28;20285;-83
2023/10/31 14:32:00;;;;;;;522.60;191.82;;;10.90;99.90;;;;;;5095793;28;20289;-82
2023/10/31 14:35:12;;;;;;;523.73;191.87;;;11.00;99.90;;;;;;5111906;28;20047;-84
2023/10/31 14:38:36;;;;;;;526.00;191.47;;;10.90;99.90;;;;;;5096116;28;20290;-84
2023/10/31 14:41:23;;;;;;;521.50;191.25;;;10.90;99.90;;;;;;5096024;28;20629;-83
2023/10/31 14:44:21;;;;;;;522.07;191.67;;;10.80;99.90;;;;;;5097408;28;20132;-83
2023/10/31 14:47:52;;;;;;;515.27;191.07;;;10.90;99.90;;;;;;5110509;28;20357;-84
2023/10/31 14:51:02;;;;;;;509.77;190.87;;;10.80;99.90;;;;;;5079183;28;20322;-85
2023/10/31 14:53:53;;;;;;;512.80;191.63;;;10.80;99.90;;;;;;5084987;28;20301;-84
2023/10/31 14:57:01;;;;;;;516.90;191.53;;;10.60;99.90;;;;;;5094903;28;20286;-84
2023/10/31 15:00:11;;;;;;;;;;;;;;;;;;;;;
2023/10/31 15:02:51;;;;;;;518.07;190.67;;;10.70;99.90;;;;;;5107128;28;20671;-84
2023/10/31 15:09:41;;;;;;;511.43;189.90;;;10.60;99.90;;;;;;5114412;28;20315;-84
2023/10/31 15:12:35;;;;;;;511.23;190.70;;;10.70;99.90;;;;;;5093948;28;20339;-84
2023/10/31 15:15:23;;;;;;;514.87;189.90;;;10.60;99.90;;;;;;5111897;28;20284;-84
2023/10/31 15:18:08;;;;;;;510.52;191.13;;;10.60;99.90;;;;;;5104335;28;20316;-83
2023/10/31 15:21:20;;;;;;;;;;;;;;;;;;;;;
2023/10/31 15:24:37;;;;;;;514.53;191.17;;;10.60;99.90;;;;;;5094814;28;20384;-84
2023/10/31 15:31:56;;;;;;;510.70;191.53;;;10.60;99.90;;;;;;5113942;28;20299;-84
2023/10/31 15:35:12;;;;;;;512.87;190.63;;;10.60;99.90;;;;;;5111772;28;20373;-85
2023/10/31 15:38:11;;;;;;;509.63;190.20;;;10.60;99.90;;;;;;5090699;28;20326;-84
2023/10/31 15:41:08;;;;;;;504.70;189.83;;;10.50;99.90;;;;;;5110509;28;20263;-84
2023/10/31 15:43:57;;;;;;;512.07;190.40;;;10.60;99.90;;;;;;5112216;28;20276;-83
2023/10/31 15:46:23;;;;;;;514.73;190.53;;;10.50;99.90;;;;;;5110767;28;20305;-83
2023/10/31 15:48:56;;;;;;;517.20;191.70;;;10.50;99.90;;;;;;5113635;28;20286;-83
2023/10/31 15:51:38;;;;;;;513.17;189.57;;;10.50;99.90;;;;;;5114551;28;20313;-84
2023/10/31 15:54:06;;;;;;;512.17;189.97;;;10.50;99.90;;;;;;5079436;28;20282;-83
2023/10/31 15:56:36;;;;;;;513.70;189.67;;;10.40;99.90;;;;;;5115150;28;20749;-83
2023/10/31 15:59:04;;;;;;;519.53;190.63;;;10.40;99.90;;;;;;5113732;28;20304;-86
2023/10/31 16:01:32;;;;;;;513.70;190.83;;;10.30;99.90;;;;;;5094589;28;20255;-84
2023/10/31 16:03:59;;;;;;;515.53;189.87;;;10.30;99.90;;;;;;5111701;28;20286;-83
2023/10/31 16:06:32;;;;;;;516.73;190.80;;;10.30;99.90;;;;;;5079600;28;20315;-84
2023/10/31 16:09:05;;;;;;;514.13;190.80;;;10.20;99.90;;;;;;5096725;28;20126;-83
2023/10/31 16:11:35;;;;;;;514.57;190.80;;;10.30;99.90;;;;;;5113280;28;20281;-82
2023/10/31 16:14:09;;;;;;;515.70;190.77;;;10.20;99.90;;;;;;5094204;28;20285;-83
2023/10/31 16:16:38;;;;;;;514.50;192.87;;;10.20;99.90;;;;;;5112626;28;20121;-86
2023/10/31 16:19:08;;;;;;;510.07;189.23;;;10.20;99.90;;;;;;5095117;28;20292;-83
2023/10/31 16:21:35;;;;;;;508.70;190.30;;;10.20;99.90;;;;;;5095116;28;20300;-84
2023/10/31 16:24:07;;;;;;;510.80;192.33;;;10.20;99.90;;;;;;5113939;28;20720;-84
2023/10/31 16:26:44;;;;;;;509.47;189.73;;;10.20;99.90;;;;;;5114177;28;20313;-83
2023/10/31 16:29:25;;;;;;;512.10;190.07;;;10.10;99.90;;;;;;5112892;28;20317;-82
2023/10/31 16:32:16;;;;;;;510.53;193.60;;;10.10;99.90;;;;;;5104539;28;20434;-83
2023/10/31 16:34:45;;;;;;;508.30;190.17;;;10.10;99.90;;;;;;5095817;28;20290;-82
2023/10/31 16:37:15;;;;;;;506.90;189.47;;;10.10;99.90;;;;;;5093068;28;20804;-82
2023/10/31 16:39:42;;;;;;;504.17;189.07;;;10.00;99.90;;;;;;5092135;28;20331;-89
2023/10/31 16:42:11;;;;;;;502.60;188.97;;;10.00;99.90;;;;;;5111238;28;20297;-85
2023/10/31 16:44:37;;;;;;;494.20;189.57;;;10.00;99.90;;;;;;5112955;28;20687;-89
2023/10/31 16:47:09;;;;;;;492.53;189.73;;;10.00;99.90;;;;;;5112679;28;20313;-85
2023/10/31 16:49:35;;;;;;;490.17;189.10;;;10.00;99.90;;;;;;5094978;28;20699;-84
2023/10/31 16:52:01;;;;;;;490.10;189.00;;;10.00;99.90;;;;;;5094679;28;20377;-82
2023/10/31 16:54:27;;;;;;;493.33;190.77;;;10.00;99.90;;;;;;5096735;28;20079;-85
2023/10/31 16:56:52;;;;;;;493.90;189.00;;;10.00;99.90;;;;;;5116635;28;20043;-85
2023/10/31 16:59:18;;;;;;;494.27;189.13;;;10.00;99.90;;;;;;5117272;28;20054;-85
2023/10/31 17:01:44;;;;;;;495.33;190.17;;;10.00;99.90;;;;;;5100630;27;20047;-85
2023/10/31 17:04:10;;;;;;;496.23;188.27;;;10.00;99.90;;;;;;5108135;28;20035;-84
2023/10/31 17:06:41;;;;;;;495.10;189.13;;;10.40;99.90;;;;;;5097304;28;20052;-85
2023/10/31 17:09:07;;;;;;;495.77;190.70;;;10.00;99.90;;;;;;5115301;28;20044;-84
2023/10/31 17:11:33;;;;;;;494.00;188.33;;;9.90;99.90;;;;;;5097249;28;20304;-84
2023/10/31 17:13:59;;;;;;;495.43;188.87;;;9.90;99.90;;;;;;5115967;28;20046;-86
2023/10/31 17:16:27;;;;;;;496.53;188.93;;;9.90;99.90;;;;;;5115901;28;20515;-86
2023/10/31 17:19:48;;;;;;;494.60;188.47;;;9.90;99.90;;;;;;5080958;28;20381;-83
2023/10/31 17:23:10;;;;;;;;;;;;;;;;;;;;;
2023/10/31 17:26:49;;;;;;;;;;;;;;;;;;;;;
2023/10/31 17:30:12;;;;;;;503.33;188.87;;;9.80;99.90;;;;;;5053283;28;20334;-84
2023/10/31 17:37:01;;;;;;;501.73;188.77;;;9.80;99.90;;;;;;5013121;28;20302;-85
2023/10/31 17:40:42;;;;;;;;;;;;;;;;;;;;;
2023/10/31 17:44:10;;;;;;;498.87;188.43;;;9.80;99.90;;;;;;4974046;28;20380;-84
2023/10/31 17:47:17;;;;;;;502.20;188.73;;;9.80;99.90;;;;;;4970904;28;20309;-83
2023/10/31 17:50:50;;;;;;;;;;;;;;;;;;;;;
2023/10/31 17:54:19;;;;;;;505.43;189.80;;;9.70;99.90;;;;;;4935696;29;19917;-84
2023/10/31 18:08:49;;;;;;;497.83;187.20;;;9.70;99.90;;;;;;4996544;28;20356;-83
2023/10/31 18:12:29;;;;;;;493.27;187.27;;;9.60;99.90;;;;;;5012711;28;20654;-85
2023/10/31 18:16:01;;;;;;;496.10;186.83;;;9.60;99.90;;;;;;5059624;28;20376;-83
2023/10/31 18:19:15;;;;;;;494.20;187.15;;;9.60;99.90;;;;;;5030680;28;20331;-83
2023/10/31 18:22:33;;;;;;;496.35;186.73;;;9.60;99.90;;;;;;4973519;28;20138;-84
2023/10/31 18:25:37;;;;;;;503.87;187.53;;;9.50;99.90;;;;;;4937005;28;20064;-82
2023/10/31 18:28:13;;;;;;;494.90;185.63;;;9.60;99.90;;;;;;4934216;29;20339;-83
2023/10/31 18:30:46;;;;;;;499.97;187.47;;;9.50;99.90;;;;;;4926482;29;20291;-83
2023/10/31 18:33:17;;;;;;;499.27;188.17;;;9.40;99.90;;;;;;4913039;29;20510;-82
2023/10/31 18:35:53;;;;;;;495.42;188.75;;;9.40;99.90;;;;;;4899938;29;20303;-84
2023/10/31 18:38:33;;;;;;;501.40;188.43;;;9.30;99.90;;;;;;4907313;29;20056;-84
2023/10/31 18:41:01;;;;;;;504.00;188.27;;;9.30;99.90;;;;;;4934087;29;20291;-83
2023/10/31 18:43:34;;;;;;;498.07;187.57;;;9.30;99.90;;;;;;4933853;29;20686;-83
2023/10/31 18:46:02;;;;;;;498.87;187.80;;;9.20;99.90;;;;;;4934362;29;20299;-82
2023/10/31 18:48:39;;;;;;;502.17;187.80;;;9.20;99.90;;;;;;4924583;28;20392;-83
2023/10/31 18:51:19;;;;;;;495.67;187.73;;;9.10;99.90;;;;;;4915117;29;20662;-82
2023/10/31 18:53:55;;;;;;;494.07;188.23;;;9.10;99.90;;;;;;5001552;28;20258;-83
2023/10/31 18:56:28;;;;;;;494.50;187.80;;;9.10;99.90;;;;;;5073818;28;20297;-81
2023/10/31 18:59:39;;;;;;;493.37;187.83;;;9.00;99.90;;;;;;5075934;28;20297;-83
2023/10/31 19:03:01;;;;;;;489.23;187.23;;;9.00;99.90;;;;;;5031623;28;20323;-82
2023/10/31 19:10:36;;;;;;;471.77;186.00;;;8.90;99.90;;;;;;5049142;28;20287;-82
2023/10/31 19:14:11;;;;;;;449.83;186.07;;;8.90;99.90;;;;;;4992183;28;20293;-82
2023/10/31 19:17:23;;;;;;;455.57;185.10;;;8.80;99.90;;;;;;4952832;28;20283;-83
2023/10/31 19:20:49;;;;;;;;;;;;;;;;;;;;;
2023/10/31 19:24:26;;;;;;;;;;;;;;;;;;;;;
2023/10/31 19:28:06;;;;;;;456.67;186.07;;;8.90;99.90;;;;;;4972120;28;20628;-82
2023/10/31 19:38:55;;;;;;;462.27;184.27;;;8.80;99.90;;;;;;5011214;28;20320;-82
2023/10/31 19:42:31;;;;;;;458.73;182.80;;;8.80;99.90;;;;;;4971118;28;20287;-82
2023/10/31 19:45:24;;;;;;;436.77;184.10;;;8.80;99.90;;;;;;4886311;29;20297;-82
2023/10/31 19:48:10;;;;;;;446.63;184.90;;;8.80;99.90;;;;;;4924437;29;20307;-82
2023/10/31 19:51:18;;;;;;;444.33;184.83;;;9.30;99.90;;;;;;4969531;28;20290;-83
2023/10/31 19:54:43;;;;;;;447.57;184.20;;;8.90;99.90;;;;;;4948795;29;20278;-82
2023/10/31 19:58:01;;;;;;;444.17;182.47;;;8.90;99.90;;;;;;4953340;28;20274;-82
2023/10/31 20:01:22;;;;;;;;;;;;;;;;;;;;;
2023/10/31 20:04:54;;;;;;;443.13;183.90;;;8.90;99.90;;;;;;4931731;29;20307;-82
2023/10/31 20:08:34;;;;;;;435.17;183.73;;;9.00;99.90;;;;;;4895622;29;20376;-83
2023/10/31 20:11:44;;;;;;;429.55;182.50;;;9.00;99.90;;;;;;4858462;29;20298;-82
2023/10/31 20:14:50;;;;;;;430.13;183.43;;;9.00;99.90;;;;;;4895716;29;20395;-82
2023/10/31 20:18:13;;;;;;;;;;;;;;;;;;;;;
2023/10/31 20:25:40;;;;;;;;;;;;;;;;;;;;;
2023/10/31 20:29:05;;;;;;;412.70;182.07;;;9.10;99.90;;;;;;4938988;29;20372;-81
2023/10/31 20:32:38;;;;;;;409.77;181.90;;;9.10;99.90;;;;;;4956444;28;20287;-82
2023/10/31 20:36:04;;;;;;;;;;;;;;;;;;;;;